sensor_id;sensor_type;location;lat;lon;timestamp;temperature;humidity
15296;DHT22;7749;49.964;7.890;2024-03-07T00:00:44;7.20;99.90
15296;DHT22;7749;49.964;7.890;2024-03-07T00:03:12;7.10;99.90
15296;DHT22;7749;49.964;7.890;2024-03-07T00:05:40;7.00;99.90
15296;DHT22;7749;49.964;7.890;2024-03-07T00:08:07;7.00;99.90
15296;DHT22;7749;49.964;7.890;2024-03-07T00:10:35;7.00;99.90
15296;DHT22;7749;49.964;7.890;2024-03-07T00:13:03;7.00;99.90
15296;DHT22;7749;49.964;7.890;2024-03-07T00:15:31;6.90;99.90
15296;DHT22;7749;49.964;7.890;2024-03-07T00:17:58;6.80;99.90
15296;DHT22;7749;49.964;7.890;2024-03-07T00:20:28;6.80;99.90
15296;DHT22;7749;49.964;7.890;2024-03-07T00:22:55;6.80;99.90
15296;DHT22;7749;49.964;7.890;2024-03-07T00:25:23;6.70;99.90
15296;DHT22;7749;49.964;7.890;2024-03-07T00:27:50;6.60;99.90
15296;DHT22;7749;49.964;7.890;2024-03-07T00:30:20;6.60;99.90
15296;DHT22;7749;49.964;7.890;2024-03-07T00:32:48;6.50;99.90
15296;DHT22;7749;49.964;7.890;2024-03-07T00:35:16;6.50;99.90
15296;DHT22;7749;49.964;7.890;2024-03-07T00:37:43;6.40;99.90
15296;DHT22;7749;49.964;7.890;2024-03-07T00:40:11;6.40;99.90
15296;DHT22;7749;49.964;7.890;2024-03-07T00:42:39;6.40;99.90
15296;DHT22;7749;49.964;7.890;2024-03-07T00:45:06;6.30;99.90
15296;DHT22;7749;49.964;7.890;2024-03-07T00:47:34;6.20;99.90
15296;DHT22;7749;49.964;7.890;2024-03-07T00:50:01;6.20;99.90
15296;DHT22;7749;49.964;7.890;2024-03-07T00:52:29;6.20;99.90
15296;DHT22;7749;49.964;7.890;2024-03-07T00:54:56;6.20;99.90
15296;DHT22;7749;49.964;7.890;2024-03-07T00:57:23;6.20;99.90
15296;DHT22;7749;49.964;7.890;2024-03-07T00:59:51;6.20;99.90
15296;DHT22;7749;49.964;7.890;2024-03-07T01:02:19;6.30;99.90
15296;DHT22;7749;49.964;7.890;2024-03-07T01:04:46;6.20;99.90
15296;DHT22;7749;49.964;7.890;2024-03-07T01:07:14;6.10;99.90
15296;DHT22;7749;49.964;7.890;2024-03-07T01:09:41;6.10;99.90
15296;DHT22;7749;49.964;7.890;2024-03-07T01:12:09;6.10;99.90
15296;DHT22;7749;49.964;7.890;2024-03-07T01:14:39;6.10;99.90
15296;DHT22;7749;49.964;7.890;2024-03-07T01:17:07;6.00;99.90
15296;DHT22;7749;49.964;7.890;2024-03-07T01:19:35;6.00;99.90
15296;DHT22;7749;49.964;7.890;2024-03-07T01:22:03;5.90;99.90
15296;DHT22;7749;49.964;7.890;2024-03-07T01:24:30;5.90;99.90
15296;DHT22;7749;49.964;7.890;2024-03-07T01:26:58;5.80;99.90
15296;DHT22;7749;49.964;7.890;2024-03-07T01:29:27;5.80;99.90
15296;DHT22;7749;49.964;7.890;2024-03-07T01:31:55;5.70;99.90
15296;DHT22;7749;49.964;7.890;2024-03-07T01:34:22;5.70;99.90
15296;DHT22;7749;49.964;7.890;2024-03-07T01:36:49;5.70;99.90
15296;DHT22;7749;49.964;7.890;2024-03-07T01:39:17;5.60;99.90
15296;DHT22;7749;49.964;7.890;2024-03-07T01:41:45;5.60;99.90
15296;DHT22;7749;49.964;7.890;2024-03-07T01:44:12;5.50;99.90
15296;DHT22;7749;49.964;7.890;2024-03-07T01:46:40;5.40;99.90
15296;DHT22;7749;49.964;7.890;2024-03-07T01:49:11;5.50;99.90
15296;DHT22;7749;49.964;7.890;2024-03-07T01:51:39;5.50;99.90
15296;DHT22;7749;49.964;7.890;2024-03-07T01:54:08;5.40;99.90
15296;DHT22;7749;49.964;7.890;2024-03-07T01:56:36;5.30;99.90
15296;DHT22;7749;49.964;7.890;2024-03-07T01:59:06;5.20;99.90
15296;DHT22;7749;49.964;7.890;2024-03-07T02:01:36;5.20;99.90
15296;DHT22;7749;49.964;7.890;2024-03-07T02:04:04;5.20;99.90
15296;DHT22;7749;49.964;7.890;2024-03-07T02:06:33;5.10;99.90
15296;DHT22;7749;49.964;7.890;2024-03-07T02:09:01;5.10;99.90
15296;DHT22;7749;49.964;7.890;2024-03-07T02:11:29;5.10;99.90
15296;DHT22;7749;49.964;7.890;2024-03-07T02:13:57;5.10;99.90
15296;DHT22;7749;49.964;7.890;2024-03-07T02:16:25;5.10;99.90
15296;DHT22;7749;49.964;7.890;2024-03-07T02:18:52;5.10;99.90
15296;DHT22;7749;49.964;7.890;2024-03-07T02:21:21;5.00;99.90
15296;DHT22;7749;49.964;7.890;2024-03-07T02:23:50;5.00;99.90
15296;DHT22;7749;49.964;7.890;2024-03-07T02:26:18;5.00;99.90
15296;DHT22;7749;49.964;7.890;2024-03-07T02:28:46;5.00;99.90
15296;DHT22;7749;49.964;7.890;2024-03-07T02:31:13;4.90;99.90
15296;DHT22;7749;49.964;7.890;2024-03-07T02:33:40;4.90;99.90
15296;DHT22;7749;49.964;7.890;2024-03-07T02:36:09;4.80;99.90
15296;DHT22;7749;49.964;7.890;2024-03-07T02:38:36;4.80;99.90
15296;DHT22;7749;49.964;7.890;2024-03-07T02:41:03;4.80;99.90
15296;DHT22;7749;49.964;7.890;2024-03-07T02:43:31;4.70;99.90
15296;DHT22;7749;49.964;7.890;2024-03-07T02:45:58;4.70;99.90
15296;DHT22;7749;49.964;7.890;2024-03-07T02:48:28;4.80;99.90
15296;DHT22;7749;49.964;7.890;2024-03-07T02:50:57;4.80;99.90
15296;DHT22;7749;49.964;7.890;2024-03-07T02:53:26;4.80;99.90
15296;DHT22;7749;49.964;7.890;2024-03-07T02:55:54;4.80;99.90
15296;DHT22;7749;49.964;7.890;2024-03-07T02:58:21;4.70;99.90
15296;DHT22;7749;49.964;7.890;2024-03-07T03:00:49;4.70;99.90
15296;DHT22;7749;49.964;7.890;2024-03-07T03:03:16;4.70;99.90
15296;DHT22;7749;49.964;7.890;2024-03-07T03:05:43;4.70;99.90
15296;DHT22;7749;49.964;7.890;2024-03-07T03:08:11;4.70;99.90
15296;DHT22;7749;49.964;7.890;2024-03-07T03:10:41;4.80;99.90
15296;DHT22;7749;49.964;7.890;2024-03-07T03:13:08;4.80;99.90
15296;DHT22;7749;49.964;7.890;2024-03-07T03:15:36;4.80;99.90
15296;DHT22;7749;49.964;7.890;2024-03-07T03:18:04;4.80;99.90
15296;DHT22;7749;49.964;7.890;2024-03-07T03:20:33;4.80;99.90
15296;DHT22;7749;49.964;7.890;2024-03-07T03:23:06;4.80;99.90
15296;DHT22;7749;49.964;7.890;2024-03-07T03:25:47;4.70;99.90
15296;DHT22;7749;49.964;7.890;2024-03-07T03:28:16;4.70;99.90
15296;DHT22;7749;49.964;7.890;2024-03-07T03:30:48;4.70;99.90
15296;DHT22;7749;49.964;7.890;2024-03-07T03:33:15;4.60;99.90
15296;DHT22;7749;49.964;7.890;2024-03-07T03:35:43;4.60;99.90
15296;DHT22;7749;49.964;7.890;2024-03-07T03:38:12;4.50;99.90
15296;DHT22;7749;49.964;7.890;2024-03-07T03:40:39;4.40;99.90
15296;DHT22;7749;49.964;7.890;2024-03-07T03:43:07;4.40;99.90
15296;DHT22;7749;49.964;7.890;2024-03-07T03:45:34;4.40;99.90
15296;DHT22;7749;49.964;7.890;2024-03-07T03:48:03;4.40;99.90
15296;DHT22;7749;49.964;7.890;2024-03-07T03:50:31;4.30;99.90
15296;DHT22;7749;49.964;7.890;2024-03-07T03:52:58;4.30;99.90
15296;DHT22;7749;49.964;7.890;2024-03-07T03:55:28;4.30;99.90
15296;DHT22;7749;49.964;7.890;2024-03-07T03:57:56;4.30;99.90
15296;DHT22;7749;49.964;7.890;2024-03-07T04:00:23;4.20;99.90
15296;DHT22;7749;49.964;7.890;2024-03-07T04:02:51;4.20;99.90
15296;DHT22;7749;49.964;7.890;2024-03-07T04:05:20;4.20;99.90
15296;DHT22;7749;49.964;7.890;2024-03-07T04:07:49;4.20;99.90
15296;DHT22;7749;49.964;7.890;2024-03-07T04:10:17;4.20;99.90
15296;DHT22;7749;49.964;7.890;2024-03-07T04:12:45;4.20;99.90
15296;DHT22;7749;49.964;7.890;2024-03-07T04:15:14;4.20;99.90
15296;DHT22;7749;49.964;7.890;2024-03-07T04:17:46;4.20;99.90
15296;DHT22;7749;49.964;7.890;2024-03-07T04:20:15;4.20;99.90
15296;DHT22;7749;49.964;7.890;2024-03-07T04:22:46;4.20;99.90
15296;DHT22;7749;49.964;7.890;2024-03-07T04:25:14;4.20;99.90
15296;DHT22;7749;49.964;7.890;2024-03-07T04:27:42;4.20;99.90
15296;DHT22;7749;49.964;7.890;2024-03-07T04:30:10;4.10;99.90
15296;DHT22;7749;49.964;7.890;2024-03-07T04:32:38;4.10;99.90
15296;DHT22;7749;49.964;7.890;2024-03-07T04:35:07;4.10;99.90
15296;DHT22;7749;49.964;7.890;2024-03-07T04:37:35;4.10;99.90
15296;DHT22;7749;49.964;7.890;2024-03-07T04:40:10;4.10;99.90
15296;DHT22;7749;49.964;7.890;2024-03-07T04:42:46;4.00;99.90
15296;DHT22;7749;49.964;7.890;2024-03-07T04:45:14;4.10;99.90
15296;DHT22;7749;49.964;7.890;2024-03-07T04:47:43;4.20;99.90
15296;DHT22;7749;49.964;7.890;2024-03-07T04:50:12;4.30;99.90
15296;DHT22;7749;49.964;7.890;2024-03-07T04:52:41;4.30;99.90
15296;DHT22;7749;49.964;7.890;2024-03-07T04:55:09;4.30;99.90
15296;DHT22;7749;49.964;7.890;2024-03-07T04:57:38;4.40;99.90
15296;DHT22;7749;49.964;7.890;2024-03-07T05:00:08;4.40;99.90
15296;DHT22;7749;49.964;7.890;2024-03-07T05:02:41;4.40;99.90
15296;DHT22;7749;49.964;7.890;2024-03-07T05:05:09;4.40;99.90
15296;DHT22;7749;49.964;7.890;2024-03-07T05:07:36;4.50;99.90
15296;DHT22;7749;49.964;7.890;2024-03-07T05:10:05;4.50;99.90
15296;DHT22;7749;49.964;7.890;2024-03-07T05:12:33;4.50;99.90
15296;DHT22;7749;49.964;7.890;2024-03-07T05:15:01;4.60;99.90
15296;DHT22;7749;49.964;7.890;2024-03-07T05:17:31;4.60;99.90
15296;DHT22;7749;49.964;7.890;2024-03-07T05:20:02;4.50;99.90
15296;DHT22;7749;49.964;7.890;2024-03-07T05:22:30;4.30;99.90
15296;DHT22;7749;49.964;7.890;2024-03-07T05:24:58;4.20;99.90
15296;DHT22;7749;49.964;7.890;2024-03-07T05:27:26;4.20;99.90
15296;DHT22;7749;49.964;7.890;2024-03-07T05:29:56;4.10;99.90
15296;DHT22;7749;49.964;7.890;2024-03-07T05:32:25;4.30;99.90
15296;DHT22;7749;49.964;7.890;2024-03-07T05:34:54;4.40;99.90
15296;DHT22;7749;49.964;7.890;2024-03-07T05:37:22;4.50;99.90
15296;DHT22;7749;49.964;7.890;2024-03-07T05:39:50;4.60;99.90
15296;DHT22;7749;49.964;7.890;2024-03-07T05:42:18;4.60;99.90
15296;DHT22;7749;49.964;7.890;2024-03-07T05:44:46;4.60;99.90
15296;DHT22;7749;49.964;7.890;2024-03-07T05:47:13;4.70;99.90
15296;DHT22;7749;49.964;7.890;2024-03-07T05:49:43;4.70;99.90
15296;DHT22;7749;49.964;7.890;2024-03-07T05:52:11;4.70;99.90
15296;DHT22;7749;49.964;7.890;2024-03-07T05:54:38;4.70;99.90
15296;DHT22;7749;49.964;7.890;2024-03-07T05:57:06;4.60;99.90
15296;DHT22;7749;49.964;7.890;2024-03-07T05:59:34;4.50;99.90
15296;DHT22;7749;49.964;7.890;2024-03-07T06:02:02;4.50;99.90
15296;DHT22;7749;49.964;7.890;2024-03-07T06:04:30;4.40;99.90
15296;DHT22;7749;49.964;7.890;2024-03-07T06:06:59;4.40;99.90
15296;DHT22;7749;49.964;7.890;2024-03-07T06:09:27;4.30;99.90
15296;DHT22;7749;49.964;7.890;2024-03-07T06:11:54;4.20;99.90
15296;DHT22;7749;49.964;7.890;2024-03-07T06:14:22;4.10;99.90
15296;DHT22;7749;49.964;7.890;2024-03-07T06:16:51;4.20;99.90
15296;DHT22;7749;49.964;7.890;2024-03-07T06:19:22;4.20;99.90
15296;DHT22;7749;49.964;7.890;2024-03-07T06:21:49;4.20;99.90
15296;DHT22;7749;49.964;7.890;2024-03-07T06:24:16;4.20;99.90
15296;DHT22;7749;49.964;7.890;2024-03-07T06:26:46;4.20;99.90
15296;DHT22;7749;49.964;7.890;2024-03-07T06:29:17;4.10;99.90
15296;DHT22;7749;49.964;7.890;2024-03-07T06:31:45;4.20;99.90
15296;DHT22;7749;49.964;7.890;2024-03-07T06:34:17;4.10;99.90
15296;DHT22;7749;49.964;7.890;2024-03-07T06:36:45;4.10;99.90
15296;DHT22;7749;49.964;7.890;2024-03-07T06:39:12;4.10;99.90
15296;DHT22;7749;49.964;7.890;2024-03-07T06:41:40;4.00;99.90
15296;DHT22;7749;49.964;7.890;2024-03-07T06:44:08;4.10;99.90
15296;DHT22;7749;49.964;7.890;2024-03-07T06:46:37;4.00;99.90
15296;DHT22;7749;49.964;7.890;2024-03-07T06:49:05;4.00;99.90
15296;DHT22;7749;49.964;7.890;2024-03-07T06:51:37;3.90;99.90
15296;DHT22;7749;49.964;7.890;2024-03-07T06:54:06;3.90;99.90
15296;DHT22;7749;49.964;7.890;2024-03-07T06:56:34;3.80;99.90
15296;DHT22;7749;49.964;7.890;2024-03-07T06:59:01;3.90;99.90
15296;DHT22;7749;49.964;7.890;2024-03-07T07:01:32;3.90;99.90
15296;DHT22;7749;49.964;7.890;2024-03-07T07:04:01;4.10;99.90
15296;DHT22;7749;49.964;7.890;2024-03-07T07:06:31;4.20;99.90
15296;DHT22;7749;49.964;7.890;2024-03-07T07:08:59;4.30;99.90
15296;DHT22;7749;49.964;7.890;2024-03-07T07:11:29;4.50;99.90
15296;DHT22;7749;49.964;7.890;2024-03-07T07:14:02;4.50;99.90
15296;DHT22;7749;49.964;7.890;2024-03-07T07:16:32;4.70;99.90
15296;DHT22;7749;49.964;7.890;2024-03-07T07:19:02;4.80;99.90
15296;DHT22;7749;49.964;7.890;2024-03-07T07:21:30;4.90;99.90
15296;DHT22;7749;49.964;7.890;2024-03-07T07:23:57;5.10;99.90
15296;DHT22;7749;49.964;7.890;2024-03-07T07:26:25;5.10;99.90
15296;DHT22;7749;49.964;7.890;2024-03-07T07:28:53;5.30;99.90
15296;DHT22;7749;49.964;7.890;2024-03-07T07:31:21;5.40;99.90
15296;DHT22;7749;49.964;7.890;2024-03-07T07:33:49;5.40;99.90
15296;DHT22;7749;49.964;7.890;2024-03-07T07:36:16;5.50;99.90
15296;DHT22;7749;49.964;7.890;2024-03-07T07:38:45;5.60;99.90
15296;DHT22;7749;49.964;7.890;2024-03-07T07:41:12;5.70;99.90
15296;DHT22;7749;49.964;7.890;2024-03-07T07:43:40;5.70;99.90
15296;DHT22;7749;49.964;7.890;2024-03-07T07:46:10;5.70;99.90
15296;DHT22;7749;49.964;7.890;2024-03-07T07:48:37;6.00;99.90
15296;DHT22;7749;49.964;7.890;2024-03-07T07:51:06;6.10;99.90
15296;DHT22;7749;49.964;7.890;2024-03-07T07:53:34;6.20;99.90
15296;DHT22;7749;49.964;7.890;2024-03-07T07:56:02;6.20;99.90
15296;DHT22;7749;49.964;7.890;2024-03-07T07:58:30;6.30;99.90
15296;DHT22;7749;49.964;7.890;2024-03-07T08:00:57;6.40;99.90
15296;DHT22;7749;49.964;7.890;2024-03-07T08:03:25;6.30;99.90
15296;DHT22;7749;49.964;7.890;2024-03-07T08:05:52;6.30;99.90
15296;DHT22;7749;49.964;7.890;2024-03-07T08:08:21;6.30;99.90
15296;DHT22;7749;49.964;7.890;2024-03-07T08:10:49;6.40;99.90
15296;DHT22;7749;49.964;7.890;2024-03-07T08:13:17;6.60;99.90
15296;DHT22;7749;49.964;7.890;2024-03-07T08:15:44;6.80;99.90
15296;DHT22;7749;49.964;7.890;2024-03-07T08:18:12;6.80;99.90
15296;DHT22;7749;49.964;7.890;2024-03-07T08:20:40;6.90;99.90
15296;DHT22;7749;49.964;7.890;2024-03-07T08:23:09;6.90;99.90
15296;DHT22;7749;49.964;7.890;2024-03-07T08:25:37;6.90;99.90
15296;DHT22;7749;49.964;7.890;2024-03-07T08:28:07;6.80;99.90
15296;DHT22;7749;49.964;7.890;2024-03-07T08:30:34;6.90;99.90
15296;DHT22;7749;49.964;7.890;2024-03-07T08:33:02;7.10;99.90
15296;DHT22;7749;49.964;7.890;2024-03-07T08:35:33;7.30;99.90
15296;DHT22;7749;49.964;7.890;2024-03-07T08:38:01;7.50;97.70
15296;DHT22;7749;49.964;7.890;2024-03-07T08:40:30;7.60;96.80
15296;DHT22;7749;49.964;7.890;2024-03-07T08:43:02;7.70;93.10
15296;DHT22;7749;49.964;7.890;2024-03-07T08:45:30;7.70;89.30
15296;DHT22;7749;49.964;7.890;2024-03-07T08:48:02;7.90;85.20
15296;DHT22;7749;49.964;7.890;2024-03-07T08:50:36;8.00;79.70
15296;DHT22;7749;49.964;7.890;2024-03-07T08:53:06;8.10;79.70
15296;DHT22;7749;49.964;7.890;2024-03-07T08:55:33;8.10;80.90
15296;DHT22;7749;49.964;7.890;2024-03-07T08:58:03;8.30;76.30
15296;DHT22;7749;49.964;7.890;2024-03-07T09:00:34;8.40;71.60
15296;DHT22;7749;49.964;7.890;2024-03-07T09:03:06;8.50;70.80
15296;DHT22;7749;49.964;7.890;2024-03-07T09:05:38;8.50;68.50
15296;DHT22;7749;49.964;7.890;2024-03-07T09:08:06;8.50;66.10
15296;DHT22;7749;49.964;7.890;2024-03-07T09:10:34;8.50;63.10
15296;DHT22;7749;49.964;7.890;2024-03-07T09:13:02;8.70;60.20
15296;DHT22;7749;49.964;7.890;2024-03-07T09:15:29;8.70;60.00
15296;DHT22;7749;49.964;7.890;2024-03-07T09:17:57;8.90;53.60
15296;DHT22;7749;49.964;7.890;2024-03-07T09:20:26;8.80;48.60
15296;DHT22;7749;49.964;7.890;2024-03-07T09:22:53;8.60;48.00
15296;DHT22;7749;49.964;7.890;2024-03-07T09:25:23;8.70;47.70
15296;DHT22;7749;49.964;7.890;2024-03-07T09:27:53;8.80;45.90
15296;DHT22;7749;49.964;7.890;2024-03-07T09:30:22;8.80;46.30
15296;DHT22;7749;49.964;7.890;2024-03-07T09:32:56;8.80;43.60
15296;DHT22;7749;49.964;7.890;2024-03-07T09:35:24;8.80;43.10
15296;DHT22;7749;49.964;7.890;2024-03-07T09:37:51;8.90;43.40
15296;DHT22;7749;49.964;7.890;2024-03-07T09:40:19;8.90;44.00
15296;DHT22;7749;49.964;7.890;2024-03-07T09:42:52;9.00;42.40
15296;DHT22;7749;49.964;7.890;2024-03-07T09:45:23;9.00;42.60
15296;DHT22;7749;49.964;7.890;2024-03-07T09:47:53;9.10;40.60
15296;DHT22;7749;49.964;7.890;2024-03-07T09:50:21;9.10;39.70
15296;DHT22;7749;49.964;7.890;2024-03-07T09:52:52;9.10;40.30
15296;DHT22;7749;49.964;7.890;2024-03-07T09:55:22;9.30;39.70
15296;DHT22;7749;49.964;7.890;2024-03-07T09:57:54;9.40;38.70
15296;DHT22;7749;49.964;7.890;2024-03-07T10:00:25;9.60;39.60
15296;DHT22;7749;49.964;7.890;2024-03-07T10:03:07;9.50;36.50
15296;DHT22;7749;49.964;7.890;2024-03-07T10:05:35;9.30;36.40
15296;DHT22;7749;49.964;7.890;2024-03-07T10:08:05;9.50;35.20
15296;DHT22;7749;49.964;7.890;2024-03-07T10:10:34;9.60;36.50
15296;DHT22;7749;49.964;7.890;2024-03-07T10:13:01;10.10;34.10
15296;DHT22;7749;49.964;7.890;2024-03-07T10:15:32;10.30;31.40
15296;DHT22;7749;49.964;7.890;2024-03-07T10:18:01;10.70;30.30
15296;DHT22;7749;49.964;7.890;2024-03-07T10:20:29;11.20;26.10
15296;DHT22;7749;49.964;7.890;2024-03-07T10:22:57;11.10;22.90
15296;DHT22;7749;49.964;7.890;2024-03-07T10:25:25;10.80;23.20
15296;DHT22;7749;49.964;7.890;2024-03-07T10:27:55;10.70;24.90
15296;DHT22;7749;49.964;7.890;2024-03-07T10:30:26;10.80;23.80
15296;DHT22;7749;49.964;7.890;2024-03-07T10:32:58;10.60;23.80
15296;DHT22;7749;49.964;7.890;2024-03-07T10:35:29;10.90;24.10
15296;DHT22;7749;49.964;7.890;2024-03-07T10:37:58;11.00;22.40
15296;DHT22;7749;49.964;7.890;2024-03-07T10:40:29;11.30;21.40
15296;DHT22;7749;49.964;7.890;2024-03-07T10:42:58;11.50;20.20
15296;DHT22;7749;49.964;7.890;2024-03-07T10:45:28;11.40;18.40
15296;DHT22;7749;49.964;7.890;2024-03-07T10:47:58;11.60;18.00
15296;DHT22;7749;49.964;7.890;2024-03-07T10:53:32;11.20;19.40
15296;DHT22;7749;49.964;7.890;2024-03-07T10:56:17;11.50;18.70
15296;DHT22;7749;49.964;7.890;2024-03-07T11:01:31;11.40;18.10
15296;DHT22;7749;49.964;7.890;2024-03-07T11:04:03;11.40;18.20
15296;DHT22;7749;49.964;7.890;2024-03-07T11:06:34;11.30;18.60
15296;DHT22;7749;49.964;7.890;2024-03-07T11:09:03;11.40;18.50
15296;DHT22;7749;49.964;7.890;2024-03-07T11:11:38;11.50;17.60
15296;DHT22;7749;49.964;7.890;2024-03-07T11:14:11;11.30;17.50
15296;DHT22;7749;49.964;7.890;2024-03-07T11:16:40;11.50;17.70
15296;DHT22;7749;49.964;7.890;2024-03-07T11:19:28;11.50;16.60
15296;DHT22;7749;49.964;7.890;2024-03-07T11:21:57;11.60;17.40
15296;DHT22;7749;49.964;7.890;2024-03-07T11:24:31;11.90;17.00
15296;DHT22;7749;49.964;7.890;2024-03-07T11:27:02;12.50;14.80
15296;DHT22;7749;49.964;7.890;2024-03-07T11:29:48;12.60;13.10
15296;DHT22;7749;49.964;7.890;2024-03-07T11:32:21;12.60;12.90
15296;DHT22;7749;49.964;7.890;2024-03-07T11:34:53;12.60;13.20
15296;DHT22;7749;49.964;7.890;2024-03-07T11:37:41;12.70;11.90
15296;DHT22;7749;49.964;7.890;2024-03-07T11:42:54;12.50;12.50
15296;DHT22;7749;49.964;7.890;2024-03-07T11:45:26;12.90;11.10
15296;DHT22;7749;49.964;7.890;2024-03-07T11:47:58;13.90;6.80
15296;DHT22;7749;49.964;7.890;2024-03-07T11:50:41;14.70;1.90
15296;DHT22;7749;49.964;7.890;2024-03-07T11:53:09;14.90;1.00
15296;DHT22;7749;49.964;7.890;2024-03-07T11:55:38;14.70;1.00
15296;DHT22;7749;49.964;7.890;2024-03-07T11:58:31;13.90;1.00
15296;DHT22;7749;49.964;7.890;2024-03-07T12:00:59;14.10;1.00
15296;DHT22;7749;49.964;7.890;2024-03-07T12:03:26;15.70;1.00
15296;DHT22;7749;49.964;7.890;2024-03-07T12:05:56;16.40;1.00
15296;DHT22;7749;49.964;7.890;2024-03-07T12:08:24;15.10;1.00
15296;DHT22;7749;49.964;7.890;2024-03-07T12:10:53;14.40;1.00
15296;DHT22;7749;49.964;7.890;2024-03-07T12:13:25;13.90;1.00
15296;DHT22;7749;49.964;7.890;2024-03-07T12:15:54;13.50;1.00
15296;DHT22;7749;49.964;7.890;2024-03-07T12:18:23;13.60;1.00
15296;DHT22;7749;49.964;7.890;2024-03-07T12:20:51;13.90;1.00
15296;DHT22;7749;49.964;7.890;2024-03-07T12:23:24;13.70;1.00
15296;DHT22;7749;49.964;7.890;2024-03-07T12:26:03;13.40;1.00
15296;DHT22;7749;49.964;7.890;2024-03-07T12:28:31;13.60;1.00
15296;DHT22;7749;49.964;7.890;2024-03-07T12:31:03;14.90;1.00
15296;DHT22;7749;49.964;7.890;2024-03-07T12:33:33;15.80;1.00
15296;DHT22;7749;49.964;7.890;2024-03-07T12:36:07;15.90;1.00
15296;DHT22;7749;49.964;7.890;2024-03-07T12:38:37;16.10;1.00
15296;DHT22;7749;49.964;7.890;2024-03-07T12:41:07;15.20;1.00
15296;DHT22;7749;49.964;7.890;2024-03-07T12:43:41;14.40;1.00
15296;DHT22;7749;49.964;7.890;2024-03-07T12:46:13;13.70;1.00
15296;DHT22;7749;49.964;7.890;2024-03-07T12:48:42;13.20;1.00
15296;DHT22;7749;49.964;7.890;2024-03-07T12:51:13;12.80;1.00
15296;DHT22;7749;49.964;7.890;2024-03-07T12:53:47;12.70;1.00
15296;DHT22;7749;49.964;7.890;2024-03-07T12:56:16;12.70;1.00
15296;DHT22;7749;49.964;7.890;2024-03-07T12:58:47;13.10;1.00
15296;DHT22;7749;49.964;7.890;2024-03-07T13:01:18;13.20;1.00
15296;DHT22;7749;49.964;7.890;2024-03-07T13:03:47;12.80;1.00
15296;DHT22;7749;49.964;7.890;2024-03-07T13:06:15;12.80;1.00
15296;DHT22;7749;49.964;7.890;2024-03-07T13:08:47;12.50;1.00
15296;DHT22;7749;49.964;7.890;2024-03-07T13:11:14;12.00;1.00
15296;DHT22;7749;49.964;7.890;2024-03-07T13:13:43;11.50;1.00
15296;DHT22;7749;49.964;7.890;2024-03-07T13:16:10;11.20;2.70
15296;DHT22;7749;49.964;7.890;2024-03-07T13:18:38;11.10;4.20
15296;DHT22;7749;49.964;7.890;2024-03-07T13:21:06;11.00;5.30
15296;DHT22;7749;49.964;7.890;2024-03-07T13:23:34;10.90;7.40
15296;DHT22;7749;49.964;7.890;2024-03-07T13:26:03;10.90;8.90
15296;DHT22;7749;49.964;7.890;2024-03-07T13:28:36;10.80;9.90
15296;DHT22;7749;49.964;7.890;2024-03-07T13:31:03;10.90;9.90
15296;DHT22;7749;49.964;7.890;2024-03-07T13:33:31;11.00;10.30
15296;DHT22;7749;49.964;7.890;2024-03-07T13:36:00;11.00;10.20
15296;DHT22;7749;49.964;7.890;2024-03-07T13:38:28;11.10;11.10
15296;DHT22;7749;49.964;7.890;2024-03-07T13:40:56;11.10;10.70
15296;DHT22;7749;49.964;7.890;2024-03-07T13:43:24;11.20;10.70
15296;DHT22;7749;49.964;7.890;2024-03-07T13:45:51;11.20;10.60
15296;DHT22;7749;49.964;7.890;2024-03-07T13:48:19;11.20;10.40
15296;DHT22;7749;49.964;7.890;2024-03-07T13:50:48;11.20;10.70
15296;DHT22;7749;49.964;7.890;2024-03-07T13:53:27;11.10;10.80
15296;DHT22;7749;49.964;7.890;2024-03-07T14:02:03;11.30;11.60
15296;DHT22;7749;49.964;7.890;2024-03-07T14:16:40;11.40;11.80
15296;DHT22;7749;49.964;7.890;2024-03-07T14:27:38;11.20;10.80
15296;DHT22;7749;49.964;7.890;2024-03-07T14:32:49;11.10;10.90
15296;DHT22;7749;49.964;7.890;2024-03-07T14:35:31;11.10;11.60
15296;DHT22;7749;49.964;7.890;2024-03-07T14:41:11;11.00;11.10
15296;DHT22;7749;49.964;7.890;2024-03-07T14:43:40;11.10;11.60
15296;DHT22;7749;49.964;7.890;2024-03-07T14:46:10;11.10;11.40
15296;DHT22;7749;49.964;7.890;2024-03-07T14:48:40;11.20;11.70
15296;DHT22;7749;49.964;7.890;2024-03-07T14:51:09;11.20;12.30
15296;DHT22;7749;49.964;7.890;2024-03-07T14:53:41;11.10;13.10
15296;DHT22;7749;49.964;7.890;2024-03-07T14:56:09;10.90;13.50
15296;DHT22;7749;49.964;7.890;2024-03-07T14:58:38;10.90;14.40
15296;DHT22;7749;49.964;7.890;2024-03-07T15:01:07;10.80;15.40
15296;DHT22;7749;49.964;7.890;2024-03-07T15:03:35;10.90;16.00
15296;DHT22;7749;49.964;7.890;2024-03-07T15:06:02;11.00;16.20
15296;DHT22;7749;49.964;7.890;2024-03-07T15:08:30;11.00;16.00
15296;DHT22;7749;49.964;7.890;2024-03-07T15:11:09;10.90;15.90
15296;DHT22;7749;49.964;7.890;2024-03-07T15:13:41;10.80;16.50
15296;DHT22;7749;49.964;7.890;2024-03-07T15:16:10;10.80;17.50
15296;DHT22;7749;49.964;7.890;2024-03-07T15:18:56;10.70;17.70
15296;DHT22;7749;49.964;7.890;2024-03-07T15:21:23;10.80;18.10
15296;DHT22;7749;49.964;7.890;2024-03-07T15:23:51;10.80;18.70
15296;DHT22;7749;49.964;7.890;2024-03-07T15:26:18;10.70;19.00
15296;DHT22;7749;49.964;7.890;2024-03-07T15:28:45;10.80;18.30
15296;DHT22;7749;49.964;7.890;2024-03-07T15:31:13;10.80;17.40
15296;DHT22;7749;49.964;7.890;2024-03-07T15:33:40;10.80;15.10
15296;DHT22;7749;49.964;7.890;2024-03-07T15:36:10;10.90;15.50
15296;DHT22;7749;49.964;7.890;2024-03-07T15:38:38;10.90;14.10
15296;DHT22;7749;49.964;7.890;2024-03-07T15:41:06;10.90;13.30
15296;DHT22;7749;49.964;7.890;2024-03-07T15:43:39;10.90;13.30
15296;DHT22;7749;49.964;7.890;2024-03-07T15:46:14;10.80;12.70
15296;DHT22;7749;49.964;7.890;2024-03-07T15:48:50;10.60;12.90
15296;DHT22;7749;49.964;7.890;2024-03-07T15:51:17;10.60;13.50
15296;DHT22;7749;49.964;7.890;2024-03-07T15:53:46;10.60;13.70
15296;DHT22;7749;49.964;7.890;2024-03-07T15:56:14;10.50;13.90
15296;DHT22;7749;49.964;7.890;2024-03-07T15:58:43;10.50;14.80
15296;DHT22;7749;49.964;7.890;2024-03-07T16:01:11;10.40;14.20
15296;DHT22;7749;49.964;7.890;2024-03-07T16:03:39;10.30;15.30
15296;DHT22;7749;49.964;7.890;2024-03-07T16:06:06;10.30;15.50
15296;DHT22;7749;49.964;7.890;2024-03-07T16:08:34;10.40;15.30
15296;DHT22;7749;49.964;7.890;2024-03-07T16:11:02;10.40;15.40
15296;DHT22;7749;49.964;7.890;2024-03-07T16:13:30;10.50;16.10
15296;DHT22;7749;49.964;7.890;2024-03-07T16:15:58;10.40;16.00
15296;DHT22;7749;49.964;7.890;2024-03-07T16:18:27;10.30;15.70
15296;DHT22;7749;49.964;7.890;2024-03-07T16:20:54;10.30;16.60
15296;DHT22;7749;49.964;7.890;2024-03-07T16:23:23;10.30;17.10
15296;DHT22;7749;49.964;7.890;2024-03-07T16:25:51;10.30;17.50
15296;DHT22;7749;49.964;7.890;2024-03-07T16:28:19;10.20;18.40
15296;DHT22;7749;49.964;7.890;2024-03-07T16:30:53;10.10;19.80
15296;DHT22;7749;49.964;7.890;2024-03-07T16:33:23;10.00;22.00
15296;DHT22;7749;49.964;7.890;2024-03-07T16:35:55;10.00;24.00
15296;DHT22;7749;49.964;7.890;2024-03-07T16:38:25;9.90;26.30
15296;DHT22;7749;49.964;7.890;2024-03-07T16:40:52;9.90;28.00
15296;DHT22;7749;49.964;7.890;2024-03-07T16:43:20;9.80;29.70
15296;DHT22;7749;49.964;7.890;2024-03-07T16:45:54;9.70;31.60
15296;DHT22;7749;49.964;7.890;2024-03-07T16:48:22;9.70;34.00
15296;DHT22;7749;49.964;7.890;2024-03-07T16:50:50;9.70;35.30